Wetterdaten: Woche 29.11.04 - 05.12.04 (KW49)
Datum Zeit Temperatur Luftfeuchte Luftdruck Niederschlag Windrichtung Taupunkt Windchill Wind
29.11.2004 00:00 2,2 C 100 % 1013 hPa 0,0 l/m NO 2,2 C 2,2 C 0,5 km/h (0 Bft)
29.11.2004 01:00 2,4 C 100 % 1013 hPa 0,0 l/m NO 2,4 C 2,2 C 1,7 km/h (1 Bft)
29.11.2004 02:00 2,5 C 100 % 1013 hPa 0,0 l/m O-SO 2,5 C 2,4 C 0,8 km/h (0 Bft)
29.11.2004 03:00 2,7 C 100 % 1012 hPa 0,0 l/m O 2,7 C 2,3 C 2,3 km/h (1 Bft)
29.11.2004 04:00 2,8 C 100 % 1012 hPa 0,0 l/m N 2,8 C 2,8 C 0,0 km/h (0 Bft)
29.11.2004 05:00 3,0 C 100 % 1012 hPa 0,0 l/m W 3,0 C 2,4 C 3,9 km/h (1 Bft)
29.11.2004 06:00 3,0 C 100 % 1013 hPa 0,0 l/m N 3,0 C 3,0 C 0,0 km/h (0 Bft)
29.11.2004 07:00 3,2 C 100 % 1013 hPa 0,0 l/m N 3,2 C 3,2 C 0,0 km/h (0 Bft)
29.11.2004 08:00 3,4 C 100 % 1013 hPa 0,0 l/m N 3,4 C 3,4 C 0,0 km/h (0 Bft)
29.11.2004 09:00 3,6 C 100 % 1014 hPa 0,0 l/m W 3,6 C 3,6 C 0,3 km/h (0 Bft)
29.11.2004 10:00 4,2 C 100 % 1014 hPa 0,0 l/m W 4,2 C 4,0 C 4,2 km/h (1 Bft)
29.11.2004 11:00 4,9 C 100 % 1014 hPa 0,0 l/m W 4,9 C 3,0 C 9,6 km/h (2 Bft)
29.11.2004 12:00 5,1 C 96 % 1013 hPa 0,0 l/m W 4,5 C 0,9 C 14,2 km/h (3 Bft)
29.11.2004 13:00 5,5 C 92 % 1013 hPa 0,0 l/m NW 4,2 C 1,7 C 13,0 km/h (3 Bft)
29.11.2004 14:00 5,6 C 90 % 1013 hPa 0,0 l/m NW 4,1 C 2,0 C 12,4 km/h (3 Bft)
29.11.2004 15:00 5,4 C 92 % 1013 hPa 0,0 l/m W 4,2 C 1,8 C 12,2 km/h (2 Bft)
29.11.2004 16:00 4,9 C 95 % 1013 hPa 0,0 l/m W-NW 4,2 C 1,4 C 10,6 km/h (2 Bft)
29.11.2004 17:00 4,8 C 94 % 1013 hPa 0,0 l/m NW 3,9 C 0,2 C 14,9 km/h (3 Bft)
29.11.2004 18:00 4,7 C 91 % 1013 hPa 0,0 l/m NW 3,3 C -1,0 C 16,7 km/h (3 Bft)
29.11.2004 19:00 4,6 C 88 % 1013 hPa 0,0 l/m NW 2,8 C -1,8 C 17,5 km/h (3 Bft)
29.11.2004 20:00 4,3 C 89 % 1013 hPa 0,0 l/m NW 2,6 C -1,5 C 17,2 km/h (3 Bft)
29.11.2004 21:00 4,0 C 90 % 1013 hPa 0,0 l/m NW 2,6 C -2,0 C 16,0 km/h (3 Bft)
29.11.2004 22:00 3,5 C 95 % 1012 hPa 0,0 l/m NW 2,7 C -2,9 C 16,7 km/h (3 Bft)
29.11.2004 23:00 3,1 C 97 % 1012 hPa 0,0 l/m W-NW 2,7 C -3,4 C 17,6 km/h (3 Bft)
30.11.2004 00:00 3,1 C 98 % 1012 hPa 0,0 l/m NW 2,8 C -4,2 C 18,8 km/h (3 Bft)
30.11.2004 01:00 3,1 C 94 % 1012 hPa 0,0 l/m N 2,2 C -5,1 C 21,8 km/h (4 Bft)
30.11.2004 02:00 2,9 C 92 % 1011 hPa 0,0 l/m N 1,7 C -5,1 C 20,9 km/h (4 Bft)
30.11.2004 03:00 2,8 C 92 % 1011 hPa 0,0 l/m N 1,6 C -4,5 C 19,0 km/h (3 Bft)
30.11.2004 04:00 2,6 C 89 % 1010 hPa 0,0 l/m N 1,1 C -4,6 C 19,0 km/h (3 Bft)
30.11.2004 05:00 2,7 C 90 % 1010 hPa 0,0 l/m NW 1,2 C -4,0 C 18,2 km/h (3 Bft)
30.11.2004 06:00 2,8 C 89 % 1009 hPa 0,0 l/m NW 1,2 C -3,6 C 16,8 km/h (3 Bft)
30.11.2004 07:00 2,7 C 89 % 1009 hPa 0,0 l/m N-NW 1,1 C -4,3 C 18,9 km/h (3 Bft)
30.11.2004 08:00 2,7 C 89 % 1009 hPa 0,0 l/m N 1,0 C -5,2 C 19,9 km/h (4 Bft)
30.11.2004 09:00 2,6 C 89 % 1009 hPa 0,0 l/m N-NO 0,9 C -2,6 C 14,7 km/h (3 Bft)
30.11.2004 10:00 2,6 C 89 % 1009 hPa 0,0 l/m N-NW 1,0 C -3,1 C 15,2 km/h (3 Bft)
30.11.2004 11:00 2,7 C 89 % 1009 hPa 0,0 l/m NW 1,1 C -2,4 C 14,6 km/h (3 Bft)
30.11.2004 12:00 2,9 C 87 % 1008 hPa 0,0 l/m NW 1,0 C -1,9 C 13,5 km/h (3 Bft)
30.11.2004 13:00 2,9 C 87 % 1008 hPa 0,0 l/m NW 1,0 C -0,7 C 11,7 km/h (2 Bft)
30.11.2004 14:00 2,8 C 88 % 1008 hPa 0,0 l/m NW 1,1 C 0,7 C 9,5 km/h (2 Bft)
30.11.2004 15:00 2,8 C 89 % 1009 hPa 0,0 l/m N-NW 1,2 C 2,2 C 5,1 km/h (1 Bft)
30.11.2004 16:00 2,7 C 90 % 1009 hPa 0,0 l/m NW 1,3 C 1,3 C 8,2 km/h (2 Bft)
30.11.2004 17:00 2,6 C 92 % 1009 hPa 0,0 l/m N 1,5 C 1,5 C 7,8 km/h (2 Bft)
30.11.2004 18:00 2,6 C 94 % 1009 hPa 0,0 l/m W-NW 1,7 C 2,4 C 2,5 km/h (1 Bft)
30.11.2004 19:00 2,6 C 95 % 1009 hPa 0,0 l/m SW 1,9 C 2,5 C 0,6 km/h (0 Bft)
30.11.2004 20:00 2,4 C 97 % 1009 hPa 0,0 l/m N 1,9 C 2,4 C 0,0 km/h (0 Bft)
30.11.2004 21:00 2,4 C 98 % 1009 hPa 0,0 l/m N 2,1 C 2,4 C 0,0 km/h (0 Bft)
30.11.2004 22:00 2,4 C 98 % 1009 hPa 0,0 l/m N 2,2 C 2,4 C 0,0 km/h (0 Bft)
30.11.2004 23:00 2,4 C 100 % 1009 hPa 0,0 l/m SO 2,3 C 2,3 C 0,6 km/h (0 Bft)
01.12.2004 00:00 2,2 C 100 % 1009 hPa 0,0 l/m N 2,2 C 2,2 C 0,0 km/h (0 Bft)
01.12.2004 01:00 1,3 C 100 % 1009 hPa 0,0 l/m N-NO 1,2 C 1,2 C 0,6 km/h (0 Bft)
01.12.2004 02:00 0,1 C 99 % 1009 hPa 0,0 l/m N -0,0 C 0,1 C 0,0 km/h (0 Bft)
01.12.2004 03:00 -0,4 C 100 % 1009 hPa 0,0 l/m N -0,4 C -0,4 C 0,0 km/h (0 Bft)
01.12.2004 04:00 0,2 C 100 % 1009 hPa 0,0 l/m N 0,2 C 0,2 C 0,0 km/h (0 Bft)
01.12.2004 05:00 0,4 C 100 % 1009 hPa 0,0 l/m O 0,4 C 0,3 C 1,0 km/h (0 Bft)
01.12.2004 06:00 0,6 C 100 % 1009 hPa 0,0 l/m N 0,6 C 0,6 C 0,0 km/h (0 Bft)
01.12.2004 07:00 0,7 C 100 % 1009 hPa 0,0 l/m W-SW 0,7 C 0,7 C 1,5 km/h (1 Bft)
01.12.2004 08:00 0,9 C 100 % 1009 hPa 0,0 l/m S-SW 0,9 C 0,8 C 1,9 km/h (1 Bft)
01.12.2004 09:00 1,1 C 100 % 1010 hPa 0,0 l/m O-SO 1,1 C 1,0 C 1,4 km/h (1 Bft)
01.12.2004 10:00 1,5 C 100 % 1010 hPa 0,0 l/m NO 1,5 C 1,5 C 0,5 km/h (0 Bft)
01.12.2004 11:00 1,8 C 100 % 1009 hPa 0,0 l/m NO 1,8 C 1,7 C 1,1 km/h (0 Bft)
01.12.2004 12:00 2,1 C 96 % 1009 hPa 0,0 l/m O 1,5 C 1,9 C 1,9 km/h (1 Bft)
01.12.2004 13:00 2,3 C 92 % 1009 hPa 0,0 l/m O-NO 1,2 C 1,7 C 5,7 km/h (1 Bft)
01.12.2004 14:00 2,5 C 93 % 1009 hPa 0,0 l/m W 1,4 C 0,5 C 8,3 km/h (2 Bft)
01.12.2004 15:00 2,6 C 97 % 1009 hPa 0,0 l/m O 2,2 C 1,0 C 7,0 km/h (2 Bft)
01.12.2004 16:00 2,4 C 98 % 1008 hPa 0,0 l/m O-NO 2,1 C 2,4 C 0,2 km/h (0 Bft)
01.12.2004 17:00 2,2 C 98 % 1009 hPa 0,0 l/m N 1,9 C 2,2 C 0,0 km/h (0 Bft)
01.12.2004 18:00 2,0 C 98 % 1009 hPa 0,0 l/m N 1,7 C 2,0 C 0,0 km/h (0 Bft)
01.12.2004 19:00 1,0 C 99 % 1009 hPa 0,0 l/m N 0,9 C 1,0 C 0,0 km/h (0 Bft)
01.12.2004 20:00 0,3 C 99 % 1009 hPa 0,0 l/m W-SW 0,1 C 0,3 C 0,8 km/h (0 Bft)
01.12.2004 21:00 -0,5 C 99 % 1010 hPa 0,0 l/m N -0,7 C -0,5 C 0,0 km/h (0 Bft)
01.12.2004 22:00 -0,6 C 100 % 1010 hPa 0,0 l/m N -0,6 C -0,6 C 0,0 km/h (0 Bft)
01.12.2004 23:00 -0,9 C 100 % 1010 hPa 0,0 l/m N -0,9 C -0,9 C 0,3 km/h (0 Bft)
02.12.2004 00:00 -1,7 C 100 % 1010 hPa 0,0 l/m SO -1,7 C -2,3 C 4,9 km/h (1 Bft)
02.12.2004 01:00 -1,7 C 100 % 1010 hPa 0,0 l/m SO -1,7 C -3,1 C 7,4 km/h (2 Bft)
02.12.2004 02:00 -1,9 C 100 % 1010 hPa 0,0 l/m SO -1,9 C -2,0 C 1,3 km/h (1 Bft)
02.12.2004 03:00 -2,2 C 100 % 1011 hPa 0,0 l/m SO -2,2 C -2,4 C 2,1 km/h (1 Bft)
02.12.2004 04:00 -2,3 C 100 % 1010 hPa 0,0 l/m SO -2,3 C -2,5 C 1,5 km/h (1 Bft)
02.12.2004 05:00 -2,4 C 100 % 1010 hPa 0,0 l/m SO -2,4 C -2,4 C 0,9 km/h (0 Bft)
02.12.2004 06:00 -2,7 C 100 % 1010 hPa 0,0 l/m N -2,7 C -2,7 C 0,0 km/h (0 Bft)
02.12.2004 07:00 -2,9 C 100 % 1010 hPa 0,0 l/m SO -2,9 C -3,0 C 0,6 km/h (0 Bft)
02.12.2004 08:00 -3,3 C 100 % 1010 hPa 0,0 l/m SO -3,3 C -3,8 C 3,9 km/h (1 Bft)
02.12.2004 09:00 -2,7 C 100 % 1010 hPa 0,0 l/m SO -2,7 C -3,1 C 3,3 km/h (1 Bft)
02.12.2004 10:00 -1,6 C 100 % 1010 hPa 0,0 l/m SO -1,6 C -2,4 C 5,1 km/h (1 Bft)
02.12.2004 11:00 -0,7 C 100 % 1010 hPa 0,0 l/m SO -0,7 C -0,7 C 0,5 km/h (0 Bft)
02.12.2004 12:00 0,0 C 100 % 1010 hPa 0,0 l/m W 0,0 C -0,6 C 4,2 km/h (1 Bft)
02.12.2004 13:00 0,7 C 100 % 1010 hPa 0,0 l/m NO 0,7 C 0,1 C 3,1 km/h (1 Bft)
02.12.2004 14:00 1,4 C 100 % 1009 hPa 0,0 l/m W-SW 1,4 C 1,3 C 1,2 km/h (1 Bft)
02.12.2004 15:00 2,2 C 100 % 1010 hPa 0,0 l/m W-SW 2,2 C 0,2 C 9,0 km/h (2 Bft)
02.12.2004 16:00 1,6 C 100 % 1011 hPa 0,0 l/m W-SW 1,6 C 1,5 C 1,4 km/h (1 Bft)
02.12.2004 17:00 1,5 C 100 % 1011 hPa 0,0 l/m N 1,5 C 1,5 C 0,0 km/h (0 Bft)
02.12.2004 18:00 1,6 C 100 % 1012 hPa 0,0 l/m N 1,6 C 1,6 C 0,0 km/h (0 Bft)
02.12.2004 19:00 1,5 C 100 % 1013 hPa 1,0 l/m W-SW 1,5 C 1,4 C 1,8 km/h (1 Bft)
02.12.2004 20:00 1,7 C 100 % 1014 hPa 3,0 l/m W-SW 1,7 C 1,5 C 1,2 km/h (1 Bft)
02.12.2004 21:00 1,5 C 100 % 1014 hPa 0,0 l/m W 1,5 C 0,1 C 5,4 km/h (1 Bft)
02.12.2004 22:00 0,4 C 100 % 1014 hPa 0,0 l/m N 0,4 C 0,4 C 0,0 km/h (0 Bft)
02.12.2004 23:00 -0,1 C 100 % 1014 hPa 0,0 l/m N -0,1 C -0,1 C 0,0 km/h (0 Bft)
03.12.2004 00:00 -0,1 C 100 % 1014 hPa 0,0 l/m N -0,1 C -0,1 C 0,0 km/h (0 Bft)
03.12.2004 01:00 0,1 C 100 % 1015 hPa 0,0 l/m N 0,1 C 0,1 C 0,0 km/h (0 Bft)
03.12.2004 02:00 0,5 C 100 % 1015 hPa 0,0 l/m N 0,5 C 0,5 C 0,0 km/h (0 Bft)
03.12.2004 03:00 0,3 C 100 % 1015 hPa 0,0 l/m N 0,3 C 0,3 C 0,0 km/h (0 Bft)
03.12.2004 04:00 0,3 C 100 % 1015 hPa 0,0 l/m N 0,3 C 0,3 C 0,0 km/h (0 Bft)
03.12.2004 05:00 0,2 C 100 % 1016 hPa 0,0 l/m N 0,2 C 0,2 C 0,0 km/h (0 Bft)
03.12.2004 06:00 0,2 C 100 % 1016 hPa 0,0 l/m N 0,2 C 0,2 C 0,0 km/h (0 Bft)
03.12.2004 07:00 0,5 C 100 % 1017 hPa 0,0 l/m N 0,5 C 0,5 C 0,0 km/h (0 Bft)
03.12.2004 08:00 1,0 C 100 % 1017 hPa 0,0 l/m O 1,0 C -1,8 C 7,9 km/h (2 Bft)
03.12.2004 09:00 1,4 C 100 % 1018 hPa 0,0 l/m O 1,4 C -0,2 C 7,6 km/h (2 Bft)
03.12.2004 10:00 2,0 C 100 % 1019 hPa 0,0 l/m O-SO 2,0 C -2,3 C 13,1 km/h (3 Bft)
03.12.2004 11:00 2,5 C 100 % 1019 hPa 0,0 l/m O 2,5 C -1,6 C 12,2 km/h (2 Bft)
03.12.2004 12:00 3,1 C 100 % 1019 hPa 0,0 l/m O 3,1 C 2,0 C 6,5 km/h (2 Bft)
03.12.2004 13:00 3,3 C 100 % 1019 hPa 0,0 l/m O-NO 3,3 C 2,2 C 6,4 km/h (2 Bft)
03.12.2004 14:00 3,8 C 100 % 1019 hPa 0,0 l/m O 3,8 C 2,0 C 8,8 km/h (2 Bft)
03.12.2004 15:00 4,1 C 100 % 1020 hPa 0,0 l/m O 4,1 C 3,4 C 4,2 km/h (1 Bft)
03.12.2004 16:00 3,8 C 100 % 1020 hPa 0,0 l/m O 3,8 C 3,3 C 3,6 km/h (1 Bft)
03.12.2004 17:00 2,9 C 100 % 1021 hPa 0,0 l/m W 2,9 C 2,9 C 0,8 km/h (0 Bft)
03.12.2004 18:00 3,1 C 100 % 1022 hPa 0,0 l/m W-NW 3,1 C 3,0 C 1,1 km/h (1 Bft)
03.12.2004 19:00 3,1 C 100 % 1022 hPa 0,0 l/m N 3,1 C 3,1 C 0,0 km/h (0 Bft)
03.12.2004 20:00 2,7 C 100 % 1022 hPa 0,0 l/m W-SW 2,7 C 2,7 C 0,8 km/h (0 Bft)
03.12.2004 21:00 1,8 C 100 % 1023 hPa 0,0 l/m W-SW 1,8 C 1,8 C 0,6 km/h (0 Bft)
03.12.2004 22:00 1,6 C 100 % 1023 hPa 0,0 l/m W-SW 1,6 C 1,5 C 0,8 km/h (0 Bft)
03.12.2004 23:00 2,1 C 100 % 1024 hPa 0,0 l/m W-SW 2,1 C 1,4 C 6,3 km/h (2 Bft)
04.12.2004 00:00 2,1 C 100 % 1024 hPa 0,0 l/m W-SW 2,1 C 2,0 C 1,2 km/h (1 Bft)
04.12.2004 01:00 1,9 C 100 % 1024 hPa 0,0 l/m W 1,9 C 1,6 C 2,5 km/h (1 Bft)
04.12.2004 02:00 1,6 C 100 % 1025 hPa 0,0 l/m W 1,6 C 1,6 C 0,8 km/h (0 Bft)
04.12.2004 03:00 1,5 C 100 % 1025 hPa 0,0 l/m W-SW 1,5 C 1,4 C 2,0 km/h (1 Bft)
04.12.2004 04:00 1,7 C 100 % 1025 hPa 0,0 l/m W 1,7 C 1,2 C 6,6 km/h (2 Bft)
04.12.2004 05:00 1,9 C 100 % 1025 hPa 0,0 l/m W 1,9 C 0,8 C 7,3 km/h (2 Bft)
04.12.2004 06:00 2,2 C 100 % 1025 hPa 0,0 l/m W-NW 2,2 C 1,7 C 4,5 km/h (1 Bft)
04.12.2004 07:00 1,8 C 100 % 1026 hPa 0,0 l/m W-NW 1,8 C 1,5 C 4,9 km/h (1 Bft)
04.12.2004 08:00 1,1 C 100 % 1026 hPa 0,0 l/m NW 1,1 C 0,3 C 6,5 km/h (2 Bft)
04.12.2004 09:00 0,8 C 100 % 1027 hPa 0,0 l/m NW 0,8 C 0,4 C 4,1 km/h (1 Bft)
04.12.2004 10:00 1,1 C 100 % 1027 hPa 0,0 l/m W-NW 1,1 C -1,3 C 10,0 km/h (2 Bft)
04.12.2004 11:00 1,5 C 100 % 1027 hPa 0,0 l/m W-NW 1,5 C -1,5 C 11,0 km/h (2 Bft)
04.12.2004 12:00 1,6 C 100 % 1027 hPa 0,0 l/m NW 1,6 C -2,6 C 13,1 km/h (3 Bft)
04.12.2004 13:00 2,0 C 100 % 1026 hPa 0,0 l/m NW 2,0 C -1,5 C 12,3 km/h (3 Bft)
04.12.2004 14:00 2,6 C 100 % 1026 hPa 0,0 l/m NW 2,6 C -0,5 C 10,7 km/h (2 Bft)
04.12.2004 15:00 2,3 C 100 % 1026 hPa 0,0 l/m N-NW 2,3 C -2,4 C 13,8 km/h (3 Bft)
04.12.2004 16:00 2,3 C 100 % 1027 hPa 0,0 l/m NW 2,3 C -1,9 C 12,6 km/h (3 Bft)
04.12.2004 17:00 2,8 C 100 % 1027 hPa 0,0 l/m NW 2,8 C -2,4 C 15,1 km/h (3 Bft)
04.12.2004 18:00 3,2 C 100 % 1027 hPa 0,0 l/m N-NW 3,2 C 0,0 C 11,6 km/h (2 Bft)
04.12.2004 19:00 3,5 C 100 % 1027 hPa 0,0 l/m N 3,5 C -1,0 C 13,1 km/h (3 Bft)
04.12.2004 20:00 3,4 C 99 % 1027 hPa 0,0 l/m N 3,3 C -2,3 C 15,8 km/h (3 Bft)
04.12.2004 21:00 3,1 C 98 % 1027 hPa 0,0 l/m N-NW 2,9 C -1,6 C 13,2 km/h (3 Bft)
04.12.2004 22:00 3,2 C 98 % 1027 hPa 0,0 l/m N 2,9 C -0,8 C 13,0 km/h (3 Bft)
04.12.2004 23:00 3,2 C 98 % 1027 hPa 0,0 l/m N 2,9 C 0,0 C 10,8 km/h (2 Bft)
05.12.2004 00:00 3,0 C 98 % 1027 hPa 0,0 l/m N 2,7 C 0,8 C 10,1 km/h (2 Bft)
05.12.2004 01:00 3,1 C 95 % 1027 hPa 0,0 l/m NW 2,4 C 1,4 C 9,0 km/h (2 Bft)
05.12.2004 02:00 3,0 C 93 % 1027 hPa 0,0 l/m N 2,1 C -0,4 C 11,8 km/h (2 Bft)
05.12.2004 03:00 2,8 C 92 % 1027 hPa 0,0 l/m N 1,7 C -0,3 C 10,5 km/h (2 Bft)
05.12.2004 04:00 2,6 C 91 % 1026 hPa 0,0 l/m N 1,3 C -0,9 C 12,3 km/h (3 Bft)
05.12.2004 05:00 2,5 C 92 % 1026 hPa 0,0 l/m N 1,3 C 0,5 C 9,3 km/h (2 Bft)
05.12.2004 06:00 2,3 C 93 % 1026 hPa 0,0 l/m N 1,3 C 0,7 C 8,4 km/h (2 Bft)
05.12.2004 07:00 2,2 C 92 % 1026 hPa 0,0 l/m N 1,1 C -0,0 C 9,8 km/h (2 Bft)
05.12.2004 08:00 2,1 C 92 % 1026 hPa 0,0 l/m N 1,0 C 0,3 C 7,6 km/h (2 Bft)
05.12.2004 09:00 2,2 C 93 % 1027 hPa 0,0 l/m N 1,2 C 1,1 C 7,5 km/h (2 Bft)
05.12.2004 10:00 2,3 C 91 % 1027 hPa 0,0 l/m N 1,1 C 1,6 C 5,6 km/h (1 Bft)
05.12.2004 11:00 2,4 C 90 % 1027 hPa 0,0 l/m N-NW 0,9 C 1,1 C 7,3 km/h (2 Bft)
05.12.2004 12:00 2,3 C 91 % 1027 hPa 0,0 l/m N-NW 1,0 C 1,6 C 5,3 km/h (1 Bft)
05.12.2004 13:00 2,2 C 91 % 1027 hPa 0,0 l/m W-NW 0,9 C 1,3 C 5,7 km/h (1 Bft)
05.12.2004 14:00 2,1 C 90 % 1027 hPa 0,0 l/m NW 0,7 C 1,3 C 6,4 km/h (2 Bft)
05.12.2004 15:00 1,9 C 90 % 1026 hPa 0,0 l/m NW 0,5 C 0,8 C 5,1 km/h (1 Bft)
05.12.2004 16:00 1,8 C 90 % 1027 hPa 0,0 l/m NW 0,3 C 0,7 C 7,5 km/h (2 Bft)
05.12.2004 17:00 1,7 C 90 % 1027 hPa 0,0 l/m NO 0,3 C 1,0 C 5,8 km/h (1 Bft)
05.12.2004 18:00 1,7 C 91 % 1027 hPa 0,0 l/m N 0,3 C 0,7 C 7,9 km/h (2 Bft)
05.12.2004 19:00 1,5 C 90 % 1028 hPa 0,0 l/m NO 0,1 C 0,6 C 6,4 km/h (2 Bft)
05.12.2004 20:00 1,4 C 91 % 1028 hPa 0,0 l/m NO 0,1 C 0,5 C 5,9 km/h (2 Bft)
05.12.2004 21:00 1,4 C 91 % 1029 hPa 0,0 l/m NW 0,1 C -0,4 C 7,4 km/h (2 Bft)
05.12.2004 22:00 1,2 C 92 % 1029 hPa 0,0 l/m N-NO 0,1 C -0,7 C 9,0 km/h (2 Bft)
05.12.2004 23:00 1,1 C 93 % 1029 hPa 0,0 l/m NO 0,1 C -0,5 C 8,4 km/h (2 Bft)
Min-Datum _ 02.12.04 30.11.04 01.12.04 - - 02.12.04 30.11.04 29.11.04
_ Min-Zeit 08:37 12:58 14:58 - - 08:37 01:28 00:00
Minimum _ -3,5 C 86 % 1007 hPa - - -3,5 C -9,3 C 0,0 km/h (0 Bft)
Max-Datum _ 29.11.04 29.11.04 05.12.04 02.12.04 - 29.11.04 29.11.04 30.11.04
_ Max-Zeit 14:00 00:00 21:42 19:00 - 11:50 13:39 04:32
Maximum _ 5,6 C 100 % 1029 hPa 3,0 l/m - 5,2 C 5,6 C 36,8 km/h
N (5 Bft)
Durchschnitt _ 1,9 C 97 % 1017 hPa #4,0 l/m NW 1,4 C 0,2 C 6,3 km/h (2 Bft)

Durchschnitt Minimum Temp.1,7 C
Durchschnitt Maximum Temp.2,1 C